Terminal Aerodrome Forecast
Issued by NWS

Home | Current Version | Previous Version | Text Only | Print | Product List | Glossary On
Versions: 1 2 3 4 5 6 7 8 9 10 11 12
000
FTUS42 TJSJ 221100 RRA
TAFISX
TAF
TISX 221139Z 2212/2312 08011KT P6SM VCSH SCT025 BKN050
     FM221500 11012G20KT P6SM FEW025 SCT050
     FM222300 10010KT P6SM VCSH SCT025 SCT040=

USA.gov is the U.S. government's official web portal to all federal, state and local government web resources and services.